sensor_id;sensor_type;location;lat;lon;timestamp;P1;durP1;ratioP1;P2;durP2;ratioP2
11988;SDS011;6054;50.966;7.094;2024-03-23T07:58:57;9.02;;;3.60;;
11988;SDS011;6054;50.966;7.094;2024-03-23T08:01:23;11.68;;;4.28;;
11988;SDS011;6054;50.966;7.094;2024-03-23T08:03:51;12.43;;;4.05;;
11988;SDS011;6054;50.966;7.094;2024-03-23T08:06:24;15.77;;;4.50;;
11988;SDS011;6054;50.966;7.094;2024-03-23T08:09:00;14.90;;;5.57;;
11988;SDS011;6054;50.966;7.094;2024-03-23T08:11:29;13.10;;;5.72;;
11988;SDS011;6054;50.966;7.094;2024-03-23T08:14:16;14.55;;;5.07;;
11988;SDS011;6054;50.966;7.094;2024-03-23T08:20:34;10.30;;;5.13;;
11988;SDS011;6054;50.966;7.094;2024-03-23T08:23:18;12.15;;;4.80;;
11988;SDS011;6054;50.966;7.094;2024-03-23T08:25:44;14.73;;;4.72;;
11988;SDS011;6054;50.966;7.094;2024-03-23T08:34:21;9.48;;;3.90;;
11988;SDS011;6054;50.966;7.094;2024-03-23T08:36:55;11.50;;;3.35;;
11988;SDS011;6054;50.966;7.094;2024-03-23T08:39:40;11.82;;;3.95;;
11988;SDS011;6054;50.966;7.094;2024-03-23T08:42:29;7.07;;;3.78;;
11988;SDS011;6054;50.966;7.094;2024-03-23T08:44:55;7.32;;;3.53;;
11988;SDS011;6054;50.966;7.094;2024-03-23T08:53:51;10.10;;;2.72;;
11988;SDS011;6054;50.966;7.094;2024-03-23T08:59:45;10.18;;;2.83;;
11988;SDS011;6054;50.966;7.094;2024-03-23T09:02:20;9.25;;;2.55;;
11988;SDS011;6054;50.966;7.094;2024-03-23T09:05:03;5.95;;;2.63;;
11988;SDS011;6054;50.966;7.094;2024-03-23T09:07:33;8.60;;;2.50;;
11988;SDS011;6054;50.966;7.094;2024-03-23T09:10:00;11.88;;;3.90;;
11988;SDS011;6054;50.966;7.094;2024-03-23T09:12:31;9.02;;;3.22;;
11988;SDS011;6054;50.966;7.094;2024-03-23T09:15:00;9.95;;;3.47;;
11988;SDS011;6054;50.966;7.094;2024-03-23T09:20:52;8.38;;;3.20;;
11988;SDS011;6054;50.966;7.094;2024-03-23T09:23:43;10.63;;;3.33;;
11988;SDS011;6054;50.966;7.094;2024-03-23T09:26:24;8.02;;;3.20;;
11988;SDS011;6054;50.966;7.094;2024-03-23T09:28:55;10.10;;;3.08;;
11988;SDS011;6054;50.966;7.094;2024-03-23T09:31:29;8.27;;;3.00;;
11988;SDS011;6054;50.966;7.094;2024-03-23T09:33:57;8.63;;;3.90;;
11988;SDS011;6054;50.966;7.094;2024-03-23T09:36:35;7.90;;;2.75;;
11988;SDS011;6054;50.966;7.094;2024-03-23T09:39:31;7.72;;;2.63;;
11988;SDS011;6054;50.966;7.094;2024-03-23T09:42:10;7.93;;;2.92;;
11988;SDS011;6054;50.966;7.094;2024-03-23T09:44:41;11.70;;;2.78;;
11988;SDS011;6054;50.966;7.094;2024-03-23T09:47:09;6.40;;;2.50;;
11988;SDS011;6054;50.966;7.094;2024-03-23T09:49:46;12.30;;;2.90;;
11988;SDS011;6054;50.966;7.094;2024-03-23T09:52:26;6.40;;;2.70;;
11988;SDS011;6054;50.966;7.094;2024-03-23T10:00:33;6.40;;;1.83;;
11988;SDS011;6054;50.966;7.094;2024-03-23T10:03:04;7.97;;;1.88;;
11988;SDS011;6054;50.966;7.094;2024-03-23T10:05:47;8.63;;;2.10;;
11988;SDS011;6054;50.966;7.094;2024-03-23T10:08:36;8.80;;;1.83;;
11988;SDS011;6054;50.966;7.094;2024-03-23T10:14:03;9.38;;;1.83;;
11988;SDS011;6054;50.966;7.094;2024-03-23T10:16:38;4.55;;;1.90;;
11988;SDS011;6054;50.966;7.094;2024-03-23T10:19:05;2.85;;;1.50;;
11988;SDS011;6054;50.966;7.094;2024-03-23T10:21:37;8.93;;;1.92;;
11988;SDS011;6054;50.966;7.094;2024-03-23T10:24:07;5.68;;;1.50;;
11988;SDS011;6054;50.966;7.094;2024-03-23T10:29:47;5.35;;;2.20;;
11988;SDS011;6054;50.966;7.094;2024-03-23T10:33:06;5.00;;;1.77;;
11988;SDS011;6054;50.966;7.094;2024-03-23T10:35:34;7.28;;;1.75;;
11988;SDS011;6054;50.966;7.094;2024-03-23T10:38:05;4.90;;;1.52;;
11988;SDS011;6054;50.966;7.094;2024-03-23T10:40:38;4.03;;;1.33;;
11988;SDS011;6054;50.966;7.094;2024-03-23T10:43:10;6.22;;;1.20;;
11988;SDS011;6054;50.966;7.094;2024-03-23T10:45:44;3.47;;;1.02;;
11988;SDS011;6054;50.966;7.094;2024-03-23T10:48:15;8.20;;;1.52;;
11988;SDS011;6054;50.966;7.094;2024-03-23T10:50:44;6.47;;;1.80;;
11988;SDS011;6054;50.966;7.094;2024-03-23T10:53:14;4.07;;;1.20;;
11988;SDS011;6054;50.966;7.094;2024-03-23T10:58:26;6.35;;;1.35;;
11988;SDS011;6054;50.966;7.094;2024-03-23T11:01:20;3.53;;;1.02;;
11988;SDS011;6054;50.966;7.094;2024-03-23T11:03:47;3.65;;;1.00;;
11988;SDS011;6054;50.966;7.094;2024-03-23T11:06:33;3.00;;;1.08;;
11988;SDS011;6054;50.966;7.094;2024-03-23T11:09:00;2.75;;;1.17;;
11988;SDS011;6054;50.966;7.094;2024-03-23T11:11:27;2.13;;;0.80;;
11988;SDS011;6054;50.966;7.094;2024-03-23T11:13:57;5.78;;;0.90;;
11988;SDS011;6054;50.966;7.094;2024-03-23T11:16:39;2.40;;;0.88;;
11988;SDS011;6054;50.966;7.094;2024-03-23T11:22:10;5.75;;;1.20;;
11988;SDS011;6054;50.966;7.094;2024-03-23T11:24:37;5.82;;;1.15;;
11988;SDS011;6054;50.966;7.094;2024-03-23T11:33:28;7.55;;;1.77;;
11988;SDS011;6054;50.966;7.094;2024-03-23T11:40:00;3.60;;;1.60;;
11988;SDS011;6054;50.966;7.094;2024-03-23T15:25:55;1.75;;;0.77;;
11988;SDS011;6054;50.966;7.094;2024-03-23T15:28:27;2.80;;;0.60;;
11988;SDS011;6054;50.966;7.094;2024-03-23T15:31:03;0.82;;;0.55;;
11988;SDS011;6054;50.966;7.094;2024-03-23T15:33:34;4.10;;;0.88;;
11988;SDS011;6054;50.966;7.094;2024-03-23T15:36:00;1.45;;;0.70;;
11988;SDS011;6054;50.966;7.094;2024-03-23T15:38:31;1.38;;;0.90;;
11988;SDS011;6054;50.966;7.094;2024-03-23T15:40:59;0.98;;;0.68;;
11988;SDS011;6054;50.966;7.094;2024-03-23T15:43:26;1.83;;;0.52;;
11988;SDS011;6054;50.966;7.094;2024-03-23T15:45:53;1.05;;;0.75;;
11988;SDS011;6054;50.966;7.094;2024-03-23T15:48:20;2.63;;;0.75;;
11988;SDS011;6054;50.966;7.094;2024-03-23T15:50:50;1.50;;;0.73;;
11988;SDS011;6054;50.966;7.094;2024-03-23T15:53:18;1.80;;;0.60;;
11988;SDS011;6054;50.966;7.094;2024-03-23T15:55:44;2.35;;;1.00;;
11988;SDS011;6054;50.966;7.094;2024-03-23T15:58:15;5.28;;;0.90;;
11988;SDS011;6054;50.966;7.094;2024-03-23T16:00:42;1.40;;;0.80;;
11988;SDS011;6054;50.966;7.094;2024-03-23T16:03:21;3.15;;;0.98;;
11988;SDS011;6054;50.966;7.094;2024-03-23T16:05:49;2.05;;;0.70;;
11988;SDS011;6054;50.966;7.094;2024-03-23T16:08:21;1.25;;;0.75;;
11988;SDS011;6054;50.966;7.094;2024-03-23T16:10:47;2.72;;;1.00;;
11988;SDS011;6054;50.966;7.094;2024-03-23T16:16:02;3.30;;;1.30;;
11988;SDS011;6054;50.966;7.094;2024-03-23T16:18:31;3.92;;;1.20;;
11988;SDS011;6054;50.966;7.094;2024-03-23T16:21:17;4.25;;;1.33;;
11988;SDS011;6054;50.966;7.094;2024-03-23T16:23:49;1.55;;;1.00;;
11988;SDS011;6054;50.966;7.094;2024-03-23T16:26:18;1.35;;;1.00;;
11988;SDS011;6054;50.966;7.094;2024-03-23T16:28:48;3.70;;;1.15;;
11988;SDS011;6054;50.966;7.094;2024-03-23T16:31:17;0.85;;;0.80;;
11988;SDS011;6054;50.966;7.094;2024-03-23T16:33:45;3.03;;;1.40;;
11988;SDS011;6054;50.966;7.094;2024-03-23T16:36:13;2.63;;;1.15;;
11988;SDS011;6054;50.966;7.094;2024-03-23T16:38:39;1.83;;;1.13;;
11988;SDS011;6054;50.966;7.094;2024-03-23T16:41:11;4.95;;;1.67;;
11988;SDS011;6054;50.966;7.094;2024-03-23T16:43:38;8.00;;;2.35;;
11988;SDS011;6054;50.966;7.094;2024-03-23T16:46:13;8.30;;;3.85;;
11988;SDS011;6054;50.966;7.094;2024-03-23T16:48:46;1.77;;;1.00;;
11988;SDS011;6054;50.966;7.094;2024-03-23T16:51:26;2.67;;;1.30;;
11988;SDS011;6054;50.966;7.094;2024-03-23T16:53:53;2.05;;;0.90;;
11988;SDS011;6054;50.966;7.094;2024-03-23T16:56:24;4.18;;;1.00;;
11988;SDS011;6054;50.966;7.094;2024-03-23T16:58:54;2.13;;;0.70;;
11988;SDS011;6054;50.966;7.094;2024-03-23T17:01:27;1.30;;;1.20;;
11988;SDS011;6054;50.966;7.094;2024-03-23T17:03:54;1.45;;;0.90;;
11988;SDS011;6054;50.966;7.094;2024-03-23T17:06:35;1.40;;;1.00;;
11988;SDS011;6054;50.966;7.094;2024-03-23T17:09:05;3.70;;;1.55;;
11988;SDS011;6054;50.966;7.094;2024-03-23T17:11:32;2.33;;;1.35;;
11988;SDS011;6054;50.966;7.094;2024-03-23T17:13:59;1.55;;;1.00;;
11988;SDS011;6054;50.966;7.094;2024-03-23T17:16:32;1.52;;;0.80;;
11988;SDS011;6054;50.966;7.094;2024-03-23T17:19:00;3.75;;;1.13;;
11988;SDS011;6054;50.966;7.094;2024-03-23T17:21:29;5.75;;;3.15;;
11988;SDS011;6054;50.966;7.094;2024-03-23T17:23:56;5.55;;;1.80;;
11988;SDS011;6054;50.966;7.094;2024-03-23T17:26:24;2.55;;;1.08;;
11988;SDS011;6054;50.966;7.094;2024-03-23T17:28:50;12.43;;;6.00;;
11988;SDS011;6054;50.966;7.094;2024-03-23T17:31:20;6.45;;;2.80;;
11988;SDS011;6054;50.966;7.094;2024-03-23T17:33:51;3.80;;;1.40;;
11988;SDS011;6054;50.966;7.094;2024-03-23T17:36:20;5.28;;;1.02;;
11988;SDS011;6054;50.966;7.094;2024-03-23T17:38:53;2.35;;;0.93;;
11988;SDS011;6054;50.966;7.094;2024-03-23T17:41:21;2.85;;;0.70;;
11988;SDS011;6054;50.966;7.094;2024-03-23T17:43:47;2.28;;;0.85;;
11988;SDS011;6054;50.966;7.094;2024-03-23T17:46:28;1.95;;;0.82;;
11988;SDS011;6054;50.966;7.094;2024-03-23T17:48:58;1.52;;;1.00;;
11988;SDS011;6054;50.966;7.094;2024-03-23T17:51:30;1.90;;;0.90;;
11988;SDS011;6054;50.966;7.094;2024-03-23T17:53:56;1.25;;;0.70;;
11988;SDS011;6054;50.966;7.094;2024-03-23T17:56:23;0.60;;;0.60;;
11988;SDS011;6054;50.966;7.094;2024-03-23T17:58:49;1.38;;;0.70;;
11988;SDS011;6054;50.966;7.094;2024-03-23T18:01:18;2.78;;;0.80;;
11988;SDS011;6054;50.966;7.094;2024-03-23T18:03:50;1.00;;;0.90;;
11988;SDS011;6054;50.966;7.094;2024-03-23T18:06:21;1.70;;;0.90;;
11988;SDS011;6054;50.966;7.094;2024-03-23T18:08:47;1.23;;;0.90;;
11988;SDS011;6054;50.966;7.094;2024-03-23T18:11:15;0.75;;;0.75;;
11988;SDS011;6054;50.966;7.094;2024-03-23T18:13:42;1.80;;;0.85;;
11988;SDS011;6054;50.966;7.094;2024-03-23T18:16:10;1.75;;;1.00;;
11988;SDS011;6054;50.966;7.094;2024-03-23T18:18:36;1.23;;;0.80;;
11988;SDS011;6054;50.966;7.094;2024-03-23T18:21:03;3.33;;;0.98;;
11988;SDS011;6054;50.966;7.094;2024-03-23T18:23:31;4.38;;;1.65;;
11988;SDS011;6054;50.966;7.094;2024-03-23T18:26:03;1.98;;;1.20;;
11988;SDS011;6054;50.966;7.094;2024-03-23T18:28:30;2.17;;;1.30;;
11988;SDS011;6054;50.966;7.094;2024-03-23T18:31:00;1.50;;;1.10;;
11988;SDS011;6054;50.966;7.094;2024-03-23T18:33:27;1.40;;;1.02;;
11988;SDS011;6054;50.966;7.094;2024-03-23T18:36:05;8.18;;;2.92;;
11988;SDS011;6054;50.966;7.094;2024-03-23T18:38:35;2.42;;;1.20;;
11988;SDS011;6054;50.966;7.094;2024-03-23T18:41:04;1.23;;;1.10;;
11988;SDS011;6054;50.966;7.094;2024-03-23T18:43:30;0.90;;;0.88;;
11988;SDS011;6054;50.966;7.094;2024-03-23T18:45:57;2.38;;;1.13;;
11988;SDS011;6054;50.966;7.094;2024-03-23T18:48:26;7.15;;;5.22;;
11988;SDS011;6054;50.966;7.094;2024-03-23T18:51:01;2.13;;;1.58;;
11988;SDS011;6054;50.966;7.094;2024-03-23T18:53:28;1.50;;;1.40;;
11988;SDS011;6054;50.966;7.094;2024-03-23T18:55:59;4.97;;;1.10;;
11988;SDS011;6054;50.966;7.094;2024-03-23T18:58:25;1.90;;;1.10;;
11988;SDS011;6054;50.966;7.094;2024-03-23T19:00:55;1.70;;;1.20;;
11988;SDS011;6054;50.966;7.094;2024-03-23T19:03:22;3.60;;;3.30;;
11988;SDS011;6054;50.966;7.094;2024-03-23T19:05:52;1.73;;;1.27;;
11988;SDS011;6054;50.966;7.094;2024-03-23T19:08:18;3.00;;;1.10;;
11988;SDS011;6054;50.966;7.094;2024-03-23T19:10:52;1.27;;;1.17;;
11988;SDS011;6054;50.966;7.094;2024-03-23T19:13:20;2.53;;;1.60;;
11988;SDS011;6054;50.966;7.094;2024-03-23T19:15:48;1.88;;;1.10;;
11988;SDS011;6054;50.966;7.094;2024-03-23T19:18:14;1.40;;;1.20;;
11988;SDS011;6054;50.966;7.094;2024-03-23T19:20:42;3.10;;;1.35;;
11988;SDS011;6054;50.966;7.094;2024-03-23T19:23:09;2.20;;;1.23;;
11988;SDS011;6054;50.966;7.094;2024-03-23T19:25:36;1.52;;;1.42;;
11988;SDS011;6054;50.966;7.094;2024-03-23T19:28:02;2.60;;;1.35;;
11988;SDS011;6054;50.966;7.094;2024-03-23T19:30:31;2.13;;;1.38;;
11988;SDS011;6054;50.966;7.094;2024-03-23T19:32:57;2.22;;;1.30;;
11988;SDS011;6054;50.966;7.094;2024-03-23T19:35:25;2.15;;;1.30;;
11988;SDS011;6054;50.966;7.094;2024-03-23T19:37:51;4.93;;;1.60;;
11988;SDS011;6054;50.966;7.094;2024-03-23T19:40:18;1.83;;;1.35;;
11988;SDS011;6054;50.966;7.094;2024-03-23T19:42:44;2.47;;;1.67;;
11988;SDS011;6054;50.966;7.094;2024-03-23T19:45:12;3.72;;;1.98;;
11988;SDS011;6054;50.966;7.094;2024-03-23T19:47:41;1.75;;;1.63;;
11988;SDS011;6054;50.966;7.094;2024-03-23T19:50:08;2.35;;;1.40;;
11988;SDS011;6054;50.966;7.094;2024-03-23T19:52:34;1.95;;;1.77;;
11988;SDS011;6054;50.966;7.094;2024-03-23T19:55:03;3.40;;;1.85;;
11988;SDS011;6054;50.966;7.094;2024-03-23T19:57:30;4.15;;;1.73;;
11988;SDS011;6054;50.966;7.094;2024-03-23T19:59:58;3.92;;;1.75;;
11988;SDS011;6054;50.966;7.094;2024-03-23T20:02:24;4.40;;;2.10;;
11988;SDS011;6054;50.966;7.094;2024-03-23T20:04:54;3.05;;;2.30;;
11988;SDS011;6054;50.966;7.094;2024-03-23T20:07:19;1.90;;;1.75;;
11988;SDS011;6054;50.966;7.094;2024-03-23T20:09:46;2.78;;;1.92;;
11988;SDS011;6054;50.966;7.094;2024-03-23T20:12:12;3.00;;;1.90;;
11988;SDS011;6054;50.966;7.094;2024-03-23T20:14:41;3.22;;;1.92;;
11988;SDS011;6054;50.966;7.094;2024-03-23T20:17:10;3.78;;;1.83;;
11988;SDS011;6054;50.966;7.094;2024-03-23T20:19:37;2.40;;;2.20;;
11988;SDS011;6054;50.966;7.094;2024-03-23T20:22:05;3.38;;;2.20;;
11988;SDS011;6054;50.966;7.094;2024-03-23T20:24:32;2.75;;;2.00;;
11988;SDS011;6054;50.966;7.094;2024-03-23T20:26:59;2.22;;;2.05;;
11988;SDS011;6054;50.966;7.094;2024-03-23T20:29:27;3.38;;;1.98;;
11988;SDS011;6054;50.966;7.094;2024-03-23T20:31:52;3.92;;;1.80;;
11988;SDS011;6054;50.966;7.094;2024-03-23T20:34:21;1.77;;;1.67;;
11988;SDS011;6054;50.966;7.094;2024-03-23T20:36:48;3.00;;;1.88;;
11988;SDS011;6054;50.966;7.094;2024-03-23T20:39:18;2.53;;;1.63;;
11988;SDS011;6054;50.966;7.094;2024-03-23T20:41:44;1.98;;;1.85;;
11988;SDS011;6054;50.966;7.094;2024-03-23T20:44:11;1.77;;;1.65;;
11988;SDS011;6054;50.966;7.094;2024-03-23T20:46:38;4.75;;;2.30;;
11988;SDS011;6054;50.966;7.094;2024-03-23T20:49:05;2.65;;;1.60;;
11988;SDS011;6054;50.966;7.094;2024-03-23T20:51:32;1.70;;;1.60;;
11988;SDS011;6054;50.966;7.094;2024-03-23T20:53:59;2.13;;;1.63;;
11988;SDS011;6054;50.966;7.094;2024-03-23T20:56:27;2.33;;;1.70;;
11988;SDS011;6054;50.966;7.094;2024-03-23T20:58:55;3.30;;;1.65;;
11988;SDS011;6054;50.966;7.094;2024-03-23T21:01:21;3.92;;;1.40;;
11988;SDS011;6054;50.966;7.094;2024-03-23T21:03:49;2.72;;;1.52;;
11988;SDS011;6054;50.966;7.094;2024-03-23T21:06:16;3.97;;;1.40;;
11988;SDS011;6054;50.966;7.094;2024-03-23T21:08:43;3.03;;;1.70;;
11988;SDS011;6054;50.966;7.094;2024-03-23T21:11:10;1.85;;;1.55;;
11988;SDS011;6054;50.966;7.094;2024-03-23T21:13:40;4.03;;;1.52;;
11988;SDS011;6054;50.966;7.094;2024-03-23T21:16:06;1.90;;;1.40;;
11988;SDS011;6054;50.966;7.094;2024-03-23T21:18:33;2.53;;;1.50;;
11988;SDS011;6054;50.966;7.094;2024-03-23T21:21:01;2.65;;;1.42;;
11988;SDS011;6054;50.966;7.094;2024-03-23T21:23:30;2.75;;;1.50;;
11988;SDS011;6054;50.966;7.094;2024-03-23T21:25:57;2.42;;;1.48;;
11988;SDS011;6054;50.966;7.094;2024-03-23T21:28:26;4.22;;;1.65;;
11988;SDS011;6054;50.966;7.094;2024-03-23T21:30:53;5.38;;;1.50;;
11988;SDS011;6054;50.966;7.094;2024-03-23T21:33:22;2.72;;;1.15;;
11988;SDS011;6054;50.966;7.094;2024-03-23T21:35:53;1.55;;;1.02;;
11988;SDS011;6054;50.966;7.094;2024-03-23T21:38:20;2.83;;;1.30;;
11988;SDS011;6054;50.966;7.094;2024-03-23T21:40:50;3.55;;;1.30;;
11988;SDS011;6054;50.966;7.094;2024-03-23T21:43:18;5.93;;;1.23;;
11988;SDS011;6054;50.966;7.094;2024-03-23T21:45:53;3.28;;;1.30;;
11988;SDS011;6054;50.966;7.094;2024-03-23T21:48:22;3.05;;;1.02;;
11988;SDS011;6054;50.966;7.094;2024-03-23T21:50:47;3.08;;;1.35;;
11988;SDS011;6054;50.966;7.094;2024-03-23T21:53:13;3.63;;;1.30;;
11988;SDS011;6054;50.966;7.094;2024-03-23T21:55:48;2.28;;;1.35;;
11988;SDS011;6054;50.966;7.094;2024-03-23T21:58:16;1.60;;;0.95;;
11988;SDS011;6054;50.966;7.094;2024-03-23T22:00:43;3.33;;;1.48;;
11988;SDS011;6054;50.966;7.094;2024-03-23T22:03:11;2.83;;;1.10;;
11988;SDS011;6054;50.966;7.094;2024-03-23T22:05:39;3.35;;;1.52;;
11988;SDS011;6054;50.966;7.094;2024-03-23T22:08:07;4.38;;;1.23;;
11988;SDS011;6054;50.966;7.094;2024-03-23T22:10:34;2.33;;;1.40;;
11988;SDS011;6054;50.966;7.094;2024-03-23T22:13:00;3.95;;;1.27;;
11988;SDS011;6054;50.966;7.094;2024-03-23T22:15:27;6.18;;;1.50;;
11988;SDS011;6054;50.966;7.094;2024-03-23T22:17:53;2.97;;;1.50;;
11988;SDS011;6054;50.966;7.094;2024-03-23T22:20:21;4.38;;;1.30;;
11988;SDS011;6054;50.966;7.094;2024-03-23T22:22:47;3.50;;;1.35;;
11988;SDS011;6054;50.966;7.094;2024-03-23T22:25:14;2.97;;;1.35;;
11988;SDS011;6054;50.966;7.094;2024-03-23T22:27:40;6.05;;;1.83;;
11988;SDS011;6054;50.966;7.094;2024-03-23T22:30:08;3.17;;;1.38;;
11988;SDS011;6054;50.966;7.094;2024-03-23T22:32:34;6.97;;;1.35;;
11988;SDS011;6054;50.966;7.094;2024-03-23T22:35:01;4.30;;;1.67;;
11988;SDS011;6054;50.966;7.094;2024-03-23T22:37:31;2.63;;;1.00;;
11988;SDS011;6054;50.966;7.094;2024-03-23T22:40:03;2.05;;;1.10;;
11988;SDS011;6054;50.966;7.094;2024-03-23T22:42:41;0.80;;;0.80;;
11988;SDS011;6054;50.966;7.094;2024-03-23T22:45:09;1.90;;;1.02;;
11988;SDS011;6054;50.966;7.094;2024-03-23T22:47:34;3.30;;;1.30;;
11988;SDS011;6054;50.966;7.094;2024-03-23T22:50:02;1.63;;;1.00;;
11988;SDS011;6054;50.966;7.094;2024-03-23T22:52:29;2.55;;;0.90;;
11988;SDS011;6054;50.966;7.094;2024-03-23T22:54:56;1.45;;;1.00;;
11988;SDS011;6054;50.966;7.094;2024-03-23T22:57:22;2.10;;;0.90;;
11988;SDS011;6054;50.966;7.094;2024-03-23T22:59:50;1.45;;;1.10;;
11988;SDS011;6054;50.966;7.094;2024-03-23T23:02:16;3.60;;;1.00;;
11988;SDS011;6054;50.966;7.094;2024-03-23T23:04:43;2.17;;;0.93;;
11988;SDS011;6054;50.966;7.094;2024-03-23T23:07:09;1.35;;;1.25;;
11988;SDS011;6054;50.966;7.094;2024-03-23T23:09:38;3.33;;;1.15;;
11988;SDS011;6054;50.966;7.094;2024-03-23T23:12:05;1.10;;;1.00;;
11988;SDS011;6054;50.966;7.094;2024-03-23T23:14:33;2.75;;;1.20;;
11988;SDS011;6054;50.966;7.094;2024-03-23T23:16:59;1.20;;;1.10;;
11988;SDS011;6054;50.966;7.094;2024-03-23T23:19:26;1.63;;;1.05;;
11988;SDS011;6054;50.966;7.094;2024-03-23T23:21:52;2.42;;;1.05;;
11988;SDS011;6054;50.966;7.094;2024-03-23T23:24:19;1.10;;;1.05;;
11988;SDS011;6054;50.966;7.094;2024-03-23T23:26:49;2.70;;;1.30;;
11988;SDS011;6054;50.966;7.094;2024-03-23T23:29:18;1.92;;;1.50;;
11988;SDS011;6054;50.966;7.094;2024-03-23T23:31:44;2.42;;;1.67;;
11988;SDS011;6054;50.966;7.094;2024-03-23T23:34:14;2.08;;;1.80;;
11988;SDS011;6054;50.966;7.094;2024-03-23T23:36:39;2.42;;;1.83;;
11988;SDS011;6054;50.966;7.094;2024-03-23T23:39:07;1.95;;;1.77;;
11988;SDS011;6054;50.966;7.094;2024-03-23T23:41:33;4.55;;;1.95;;
11988;SDS011;6054;50.966;7.094;2024-03-23T23:44:02;4.78;;;1.83;;
11988;SDS011;6054;50.966;7.094;2024-03-23T23:46:30;1.63;;;1.52;;
11988;SDS011;6054;50.966;7.094;2024-03-23T23:48:57;3.00;;;1.70;;
11988;SDS011;6054;50.966;7.094;2024-03-23T23:51:23;3.85;;;1.90;;
11988;SDS011;6054;50.966;7.094;2024-03-23T23:53:50;2.30;;;1.65;;
11988;SDS011;6054;50.966;7.094;2024-03-23T23:56:16;2.70;;;1.50;;
11988;SDS011;6054;50.966;7.094;2024-03-23T23:58:43;2.15;;;1.67;;
